createdAt,value
2023-01-07T00:04:11.025Z,99070.15
2023-01-07T00:09:16.406Z,99073.39
2023-01-07T00:14:20.209Z,99068.37
2023-01-07T00:19:24.315Z,99072.41
2023-01-07T00:24:27.975Z,99071.77
2023-01-07T00:29:31.524Z,99075.31
2023-01-07T00:34:35.143Z,99077.23
2023-01-07T00:39:41.918Z,99070.59
2023-01-07T00:44:45.749Z,99070.61
2023-01-07T00:49:49.290Z,99074.05
2023-01-07T00:54:52.933Z,99081.94
2023-01-07T00:59:56.507Z,99084.88
2023-01-07T01:05:00.301Z,99084.27
2023-01-07T01:10:03.880Z,99096.55
2023-01-07T01:15:07.531Z,99102.40
2023-01-07T01:20:11.074Z,99094.73
2023-01-07T01:25:14.647Z,99097.02
2023-01-07T01:30:18.336Z,99106.02
2023-01-07T01:35:21.935Z,99113.47
2023-01-07T01:40:25.478Z,99116.27
2023-01-07T01:45:29.071Z,99122.01
2023-01-07T01:50:32.691Z,99118.98
2023-01-07T01:55:36.296Z,99127.19
2023-01-07T02:00:39.845Z,99119.11
2023-01-07T02:05:43.416Z,99110.55
2023-01-07T02:10:48.156Z,99112.52
2023-01-07T02:15:51.832Z,99114.34
2023-01-07T02:20:55.415Z,99115.39
2023-01-07T02:25:58.985Z,99113.98
2023-01-07T02:31:02.552Z,99107.10
2023-01-07T02:36:06.161Z,99106.54
2023-01-07T02:41:09.700Z,99113.83
2023-01-07T02:46:13.342Z,99107.81
2023-01-07T02:51:16.985Z,99107.70
2023-01-07T02:56:21.278Z,99112.73
2023-01-07T03:01:25.026Z,99111.66
2023-01-07T03:06:28.924Z,99110.11
2023-01-07T03:11:32.607Z,99113.12
2023-01-07T03:16:36.204Z,99113.95
2023-01-07T03:21:39.871Z,99111.50
2023-01-07T03:26:43.494Z,99113.33
2023-01-07T03:31:47.073Z,99116.92
2023-01-07T03:36:53.064Z,99114.34
2023-01-07T03:42:14.165Z,99108.88
2023-01-07T03:47:18.018Z,99107.52
2023-01-07T03:52:21.620Z,99110.22
2023-01-07T03:57:25.290Z,99116.16
2023-01-07T04:02:30.842Z,99120.75
2023-01-07T04:07:34.408Z,99126.41
2023-01-07T04:12:37.960Z,99125.79
2023-01-07T04:17:41.493Z,99124.66
2023-01-07T04:22:45.003Z,99125.77
2023-01-07T04:27:48.554Z,99122.73
2023-01-07T04:32:52.641Z,99119.95
2023-01-07T04:37:56.250Z,99118.67
2023-01-07T04:42:59.823Z,99120.58
2023-01-07T04:48:03.371Z,99118.86
2023-01-07T04:53:07.183Z,99120.12
2023-01-07T04:58:10.718Z,99127.52
2023-01-07T05:03:14.268Z,99130.76
2023-01-07T05:08:17.831Z,99137.99
2023-01-07T05:13:21.373Z,99150.11
2023-01-07T05:18:24.951Z,99149.18
2023-01-07T05:23:29.626Z,99153.67
2023-01-07T05:28:33.190Z,99156.62
2023-01-07T05:33:36.808Z,99159.13
2023-01-07T05:38:40.367Z,99156.31
2023-01-07T05:43:45.957Z,99163.55
2023-01-07T05:48:49.522Z,99160.70
2023-01-07T05:53:53.076Z,99155.80
2023-01-07T05:58:56.622Z,99157.35
2023-01-07T06:04:00.296Z,99156.05
2023-01-07T06:09:03.854Z,99156.95
2023-01-07T06:14:08.611Z,99157.27
2023-01-07T06:19:12.278Z,99153.38
2023-01-07T06:24:16.915Z,99157.08
2023-01-07T06:29:20.461Z,99151.38
2023-01-07T06:34:25.056Z,99149.92
2023-01-07T06:39:28.790Z,99154.29
2023-01-07T06:44:32.412Z,99150.91
2023-01-07T06:49:35.946Z,99153.05
2023-01-07T06:54:39.487Z,99150.77
2023-01-07T06:59:44.085Z,99150.66
2023-01-07T07:04:47.865Z,99157.13
2023-01-07T07:09:51.820Z,99156.79
2023-01-07T07:14:55.366Z,99155.59
2023-01-07T07:19:58.930Z,99153.55
2023-01-07T07:25:03.530Z,99159.08
2023-01-07T07:30:08.189Z,99159.90
2023-01-07T07:35:11.863Z,99162.83
2023-01-07T07:40:15.410Z,99168.10
2023-01-07T07:45:19.966Z,99168.40
2023-01-07T07:50:23.493Z,99160.41
2023-01-07T07:55:27.252Z,99154.55
2023-01-07T08:00:30.969Z,99151.55
2023-01-07T08:05:34.702Z,99160.02
2023-01-07T08:10:38.505Z,99158.42
2023-01-07T08:15:42.287Z,99161.95
2023-01-07T08:20:48.001Z,99152.44
2023-01-07T08:25:51.624Z,99148.59
2023-01-07T08:30:55.293Z,99147.58
2023-01-07T08:35:58.964Z,99143.82
2023-01-07T08:41:02.564Z,99150.83
2023-01-07T08:46:06.319Z,99155.34
2023-01-07T08:51:09.917Z,99160.74
2023-01-07T08:56:13.491Z,99157.01
2023-01-07T09:01:17.165Z,99156.99
2023-01-07T09:06:20.919Z,99159.26
2023-01-07T09:11:24.671Z,99159.83
2023-01-07T09:16:28.288Z,99161.00
2023-01-07T09:21:32.011Z,99163.63
2023-01-07T09:26:35.613Z,99163.67
2023-01-07T09:31:39.261Z,99161.85
2023-01-07T09:36:44.036Z,99158.72
2023-01-07T09:41:47.638Z,99158.32
2023-01-07T09:46:51.320Z,99156.84
2023-01-07T09:51:54.876Z,99147.24
2023-01-07T09:56:58.519Z,99141.45
2023-01-07T10:02:02.097Z,99137.52
2023-01-07T10:07:07.838Z,99125.21
2023-01-07T10:12:11.399Z,99120.55
2023-01-07T10:17:14.956Z,99123.19
2023-01-07T10:24:16.049Z,99111.44
2023-01-07T10:29:19.635Z,99110.34
2023-01-07T10:34:23.176Z,99116.69
2023-01-07T10:39:26.743Z,99114.83
2023-01-07T10:44:30.430Z,99108.44
2023-01-07T10:49:34.119Z,99105.71
2023-01-07T10:54:38.287Z,99103.36
2023-01-07T10:59:41.841Z,99099.52
2023-01-07T11:04:45.497Z,99097.27
2023-01-07T11:09:49.395Z,99093.66
2023-01-07T11:14:52.988Z,99085.98
2023-01-07T11:19:56.795Z,99085.91
2023-01-07T11:25:00.329Z,99081.00
2023-01-07T11:30:04.144Z,99076.27
2023-01-07T11:35:07.720Z,99071.42
2023-01-07T11:40:11.265Z,99057.34
2023-01-07T11:45:14.979Z,99055.52
2023-01-07T11:50:18.603Z,99047.98
2023-01-07T11:55:22.173Z,99041.27
2023-01-07T12:00:25.724Z,99038.23
2023-01-07T12:05:30.276Z,99033.77
2023-01-07T12:10:33.947Z,99026.87
2023-01-07T12:15:37.638Z,99023.75
2023-01-07T12:20:41.168Z,99018.48
2023-01-07T12:25:45.474Z,99011.35
2023-01-07T12:30:51.015Z,99004.84
2023-01-07T12:35:54.645Z,98999.92
2023-01-07T12:40:58.184Z,98994.06
2023-01-07T12:46:01.746Z,98991.65
2023-01-07T12:51:05.301Z,98987.96
2023-01-07T12:56:08.837Z,98989.27
2023-01-07T13:01:12.549Z,98989.08
2023-01-07T13:06:16.148Z,98984.60
2023-01-07T13:11:20.402Z,98987.80
2023-01-07T13:16:24.036Z,98987.68
2023-01-07T13:21:27.608Z,98984.92
2023-01-07T13:26:31.960Z,98983.55
2023-01-07T13:31:35.597Z,98989.45
2023-01-07T13:36:39.210Z,98987.73
2023-01-07T13:41:42.842Z,98984.80
2023-01-07T13:46:46.479Z,98980.25
2023-01-07T13:51:50.255Z,98978.81
2023-01-07T13:56:53.866Z,98979.88
2023-01-07T14:01:57.485Z,98975.52
2023-01-07T14:07:01.125Z,98965.68
2023-01-07T14:12:04.691Z,98963.40
2023-01-07T14:17:08.254Z,98959.26
2023-01-07T14:22:11.777Z,98961.09
2023-01-07T14:27:15.297Z,98970.17
2023-01-07T14:32:18.900Z,98976.64
2023-01-07T14:37:22.653Z,98972.47
2023-01-07T14:42:26.320Z,98973.39
2023-01-07T14:47:29.881Z,98970.83
2023-01-07T14:52:33.406Z,98965.73
2023-01-07T14:57:36.988Z,98960.84
2023-01-07T15:02:40.700Z,98962.31
2023-01-07T15:07:44.379Z,98950.82
2023-01-07T15:13:05.863Z,98940.13
2023-01-07T15:18:09.513Z,98933.89
2023-01-07T15:23:13.202Z,98935.84
2023-01-07T15:28:16.884Z,98934.14
2023-01-07T15:33:20.608Z,98933.46
2023-01-07T15:38:24.293Z,98934.58
2023-01-07T15:43:28.524Z,98930.29
2023-01-07T15:48:32.081Z,98927.27
2023-01-07T15:53:35.619Z,98925.66
2023-01-07T15:58:39.871Z,98920.64
2023-01-07T16:03:45.781Z,98916.63
2023-01-07T16:08:49.293Z,98911.67
2023-01-07T16:13:52.870Z,98910.70
2023-01-07T16:18:56.598Z,98916.47
2023-01-07T16:24:01.287Z,98917.17
2023-01-07T16:33:12.863Z,98925.02
2023-01-07T16:38:16.649Z,98920.96
2023-01-07T16:43:20.484Z,98916.77
2023-01-07T16:48:24.272Z,98912.36
2023-01-07T16:53:28.136Z,98911.19
2023-01-07T16:58:31.720Z,98914.63
2023-01-07T17:03:35.501Z,98911.58
2023-01-07T17:08:39.526Z,98912.30
2023-01-07T17:13:44.119Z,98902.80
2023-01-07T17:18:47.675Z,98895.47
2023-01-07T17:23:51.598Z,98897.66
2023-01-07T17:28:55.195Z,98892.59
2023-01-07T17:33:58.924Z,98896.13
2023-01-07T17:39:02.594Z,98892.52
2023-01-07T17:44:06.174Z,98893.96
2023-01-07T17:49:09.801Z,98888.89
2023-01-07T17:54:13.338Z,98889.73
2023-01-07T17:59:17.247Z,98883.45
2023-01-07T18:04:21.486Z,98885.34
2023-01-07T18:09:25.218Z,98892.55
2023-01-07T18:14:28.841Z,98899.88
2023-01-07T18:19:32.877Z,98895.02
2023-01-07T18:24:36.438Z,98898.80
2023-01-07T18:29:40.129Z,98896.66
2023-01-07T18:34:43.851Z,98901.73
2023-01-07T18:39:47.396Z,98898.42
2023-01-07T18:44:51.115Z,98890.29
2023-01-07T18:49:54.717Z,98898.39
2023-01-07T18:54:58.283Z,98892.58
2023-01-07T19:00:01.856Z,98883.77
2023-01-07T19:05:05.508Z,98884.38
2023-01-07T19:10:09.062Z,98883.80
2023-01-07T19:15:12.606Z,98881.66
2023-01-07T19:20:16.733Z,98880.02
2023-01-07T19:25:20.350Z,98880.60
2023-01-07T19:30:24.028Z,98885.05
2023-01-07T19:35:28.122Z,98877.70
2023-01-07T19:40:31.753Z,98883.88
2023-01-07T19:45:35.475Z,98883.09
2023-01-07T19:50:39.440Z,98886.07
2023-01-07T19:55:43.039Z,98876.77
2023-01-07T20:00:46.659Z,98871.46
2023-01-07T20:05:50.380Z,98864.47
2023-01-07T20:10:54.009Z,98866.27
2023-01-07T20:15:57.549Z,98862.45
2023-01-07T20:21:01.315Z,98854.48
2023-01-07T20:26:06.774Z,98857.76
2023-01-07T20:31:10.926Z,98851.96
2023-01-07T20:36:14.474Z,98846.05
2023-01-07T20:41:18.307Z,98835.16
2023-01-07T20:46:22.083Z,98830.70
2023-01-07T20:51:25.831Z,98827.98
2023-01-07T20:56:32.499Z,98826.52
2023-01-07T21:01:36.780Z,98822.62
2023-01-07T21:06:41.375Z,98818.23
2023-01-07T21:11:48.024Z,98814.63
2023-01-07T21:16:51.671Z,98812.74
2023-01-07T21:21:55.466Z,98813.27
2023-01-07T21:29:13.005Z,98822.29
2023-01-07T21:34:21.484Z,98823.13
2023-01-07T21:39:30.057Z,98820.90
2023-01-07T21:44:38.938Z,98814.96
2023-01-07T21:49:49.599Z,98808.55
2023-01-07T21:54:58.158Z,98806.21
2023-01-07T22:00:08.482Z,98798.82
2023-01-07T22:05:16.817Z,98781.89
2023-01-07T22:10:25.311Z,98777.52
2023-01-07T22:15:33.780Z,98778.34
2023-01-07T22:20:42.074Z,98775.39
2023-01-07T22:25:50.464Z,98771.32
2023-01-07T22:31:00.763Z,98771.23
2023-01-07T22:36:11.597Z,98768.41
2023-01-07T22:41:20.379Z,98762.83
2023-01-07T22:46:33.783Z,98741.78
2023-01-07T22:51:47.860Z,98733.77
2023-01-07T22:56:56.388Z,98730.45
2023-01-07T23:02:04.997Z,98732.30
2023-01-07T23:07:13.344Z,98725.27
2023-01-07T23:12:27.556Z,98721.30
2023-01-07T23:17:35.835Z,98719.02
2023-01-07T23:22:44.151Z,98712.43
2023-01-07T23:27:54.076Z,98704.06
2023-01-07T23:33:02.586Z,98695.05
2023-01-07T23:38:11.121Z,98690.27
2023-01-07T23:43:19.531Z,98687.12
2023-01-07T23:48:28.030Z,98685.84
2023-01-07T23:53:36.731Z,98677.27
2023-01-07T23:58:45.174Z,98673.80
